createdAt,value
2022-09-04T00:02:32.290Z,5.80
2022-09-04T00:05:05.861Z,6.22
2022-09-04T00:08:02.608Z,4.43
2022-09-04T00:10:51.807Z,5.78
2022-09-04T00:13:27.670Z,8.35
2022-09-04T00:16:14.176Z,6.30
2022-09-04T00:18:43.520Z,4.80
2022-09-04T00:21:36.946Z,5.63
2022-09-04T00:24:10.880Z,5.85
2022-09-04T00:26:40.156Z,4.78
2022-09-04T00:29:27.151Z,5.60
2022-09-04T00:32:14.298Z,4.45
2022-09-04T00:34:46.983Z,5.18
2022-09-04T00:39:54.760Z,4.72
2022-09-04T00:43:26.396Z,4.72
2022-09-04T00:46:13.121Z,5.63
2022-09-04T00:48:45.802Z,7.20
2022-09-04T00:51:30.895Z,5.30
2022-09-04T00:54:28.758Z,7.60
2022-09-04T00:57:14.205Z,7.78
2022-09-04T01:00:14.931Z,4.60
2022-09-04T01:03:09.348Z,5.28
2022-09-04T01:06:15.295Z,6.30
2022-09-04T01:09:11.835Z,6.72
2022-09-04T01:11:53.624Z,6.40
2022-09-04T01:15:00.024Z,6.90
2022-09-04T01:17:56.980Z,4.13
2022-09-04T01:20:57.451Z,4.13
2022-09-04T01:23:37.762Z,5.97
2022-09-04T01:26:13.742Z,4.80
2022-09-04T01:29:16.048Z,4.78
2022-09-04T01:31:55.310Z,5.00
2022-09-04T01:34:42.379Z,4.97
2022-09-04T01:37:47.252Z,4.38
2022-09-04T01:40:49.703Z,6.28
2022-09-04T01:43:21.061Z,6.80
2022-09-04T01:45:59.859Z,5.65
2022-09-04T01:48:34.504Z,5.22
2022-09-04T01:51:13.235Z,6.60
2022-09-04T01:53:43.856Z,5.25
2022-09-04T01:56:25.663Z,5.85
2022-09-04T01:58:56.588Z,5.25
2022-09-04T02:01:38.516Z,5.70
2022-09-04T02:04:39.948Z,7.00
2022-09-04T02:07:22.838Z,5.10
2022-09-04T02:12:42.579Z,5.10
2022-09-04T02:15:26.130Z,4.38
2022-09-04T02:18:04.371Z,4.78
2022-09-04T02:20:31.471Z,4.85
2022-09-04T02:23:20.811Z,3.70
2022-09-04T02:26:40.339Z,3.42
2022-09-04T02:29:19.091Z,4.80
2022-09-04T02:32:25.206Z,3.40
2022-09-04T02:35:02.499Z,3.13
2022-09-04T02:37:49.950Z,3.38
2022-09-04T02:40:37.691Z,2.78
2022-09-04T02:43:29.114Z,3.85
2022-09-04T02:46:17.287Z,2.90
2022-09-04T02:49:21.216Z,3.58
2022-09-04T02:52:07.334Z,4.60
2022-09-04T02:55:16.131Z,3.03
2022-09-04T02:58:14.902Z,3.00
2022-09-04T03:01:03.000Z,3.40
2022-09-04T03:03:40.939Z,3.53
2022-09-04T03:06:48.471Z,3.83
2022-09-04T03:09:27.401Z,4.53
2022-09-04T03:12:03.842Z,3.92
2022-09-04T03:14:40.631Z,4.72
2022-09-04T03:17:21.842Z,3.75
2022-09-04T03:20:03.495Z,5.57
2022-09-04T03:22:43.424Z,3.72
2022-09-04T03:25:30.397Z,4.18
2022-09-04T03:27:57.234Z,3.53
2022-09-04T03:30:24.711Z,4.00
2022-09-04T03:33:02.830Z,3.78
2022-09-04T03:35:56.735Z,3.78
2022-09-04T03:38:33.998Z,5.25
2022-09-04T03:41:28.505Z,3.60
2022-09-04T03:44:13.096Z,3.55
2022-09-04T03:46:52.009Z,4.65
2022-09-04T03:49:49.815Z,5.13
2022-09-04T03:52:42.186Z,4.35
2022-09-04T03:55:55.115Z,5.50
2022-09-04T03:58:36.979Z,4.05
2022-09-04T04:01:24.188Z,4.20
2022-09-04T04:04:09.068Z,4.60
2022-09-04T04:06:50.887Z,3.70
2022-09-04T04:09:32.742Z,4.97
2022-09-04T04:12:10.635Z,3.97
2022-09-04T04:14:51.516Z,5.55
2022-09-04T04:17:32.450Z,4.63
2022-09-04T04:20:17.940Z,5.00
2022-09-04T04:23:17.862Z,3.85
2022-09-04T04:25:48.607Z,4.68
2022-09-04T04:28:37.960Z,5.95
2022-09-04T04:31:16.541Z,4.60
2022-09-04T04:33:46.795Z,6.40
2022-09-04T04:36:27.722Z,5.55
2022-09-04T04:39:23.341Z,6.25
2022-09-04T04:42:20.499Z,6.55
2022-09-04T04:45:32.628Z,5.80
2022-09-04T04:48:29.867Z,4.97
2022-09-04T04:51:05.591Z,5.40
2022-09-04T04:53:49.394Z,4.80
2022-09-04T04:56:27.318Z,6.32
2022-09-04T04:59:20.354Z,5.90
2022-09-04T05:02:07.835Z,7.55
2022-09-04T05:05:02.307Z,5.20
2022-09-04T05:07:42.179Z,4.97
2022-09-04T05:10:18.263Z,5.63
2022-09-04T05:13:03.769Z,6.78
2022-09-04T05:15:58.077Z,6.60
2022-09-04T05:18:36.406Z,5.63
2022-09-04T05:21:17.293Z,6.28
2022-09-04T05:24:18.016Z,6.72
2022-09-04T05:26:54.651Z,5.30
2022-09-04T05:29:59.044Z,4.88
2022-09-04T05:32:33.191Z,4.50
2022-09-04T05:35:35.093Z,4.57
2022-09-04T05:38:44.548Z,4.47
2022-09-04T05:41:42.215Z,3.50
2022-09-04T05:44:36.556Z,4.90
2022-09-04T05:47:17.971Z,2.95
2022-09-04T05:50:06.581Z,3.15
2022-09-04T05:52:51.912Z,3.55
2022-09-04T05:55:51.239Z,3.13
2022-09-04T05:58:55.325Z,3.30
2022-09-04T06:01:52.018Z,2.70
2022-09-04T06:04:55.498Z,3.38
2022-09-04T06:07:31.610Z,3.08
2022-09-04T06:10:17.807Z,4.03
2022-09-04T06:13:28.726Z,3.58
2022-09-04T06:16:21.219Z,2.78
2022-09-04T06:18:53.654Z,2.40
2022-09-04T06:21:23.001Z,4.43
2022-09-04T06:24:08.065Z,4.90
2022-09-04T06:27:05.089Z,2.95
2022-09-04T06:30:11.724Z,3.78
2022-09-04T06:32:38.354Z,3.85
2022-09-04T06:35:34.775Z,2.53
2022-09-04T06:38:23.073Z,1.65
2022-09-04T06:41:15.827Z,1.90
2022-09-04T06:43:51.881Z,1.92
2022-09-04T06:46:30.478Z,4.45
2022-09-04T06:49:19.011Z,2.92
2022-09-04T06:52:18.691Z,2.05
2022-09-04T06:55:08.396Z,3.30
2022-09-04T06:57:56.860Z,2.58
2022-09-04T07:00:25.598Z,4.00
2022-09-04T07:03:14.845Z,1.40
2022-09-04T07:06:20.751Z,3.22
2022-09-04T07:08:53.314Z,1.50
2022-09-04T07:11:38.541Z,1.27
2022-09-04T07:14:24.676Z,2.03
2022-09-04T07:17:22.006Z,1.60
2022-09-04T07:20:26.913Z,1.13
2022-09-04T07:22:56.602Z,1.30
2022-09-04T07:25:35.319Z,2.08
2022-09-04T07:28:29.841Z,1.52
2022-09-04T07:31:08.668Z,1.38
2022-09-04T07:33:52.757Z,1.30
2022-09-04T07:36:39.910Z,1.25
2022-09-04T07:39:43.719Z,2.33
2022-09-04T07:42:16.572Z,1.88
2022-09-04T07:44:54.688Z,1.40
2022-09-04T07:47:35.400Z,1.38
2022-09-04T07:50:32.711Z,1.85
2022-09-04T07:53:14.654Z,1.48
2022-09-04T07:55:46.879Z,1.23
2022-09-04T07:58:25.699Z,1.77
2022-09-04T08:01:29.025Z,1.20
2022-09-04T08:04:15.408Z,1.10
2022-09-04T08:07:09.459Z,1.20
2022-09-04T08:10:04.844Z,1.45
2022-09-04T08:13:01.331Z,1.73
2022-09-04T08:15:52.714Z,2.15
2022-09-04T08:18:45.002Z,2.88
2022-09-04T08:21:30.674Z,1.48
2022-09-04T08:24:28.423Z,1.17
2022-09-04T08:27:33.866Z,1.10
2022-09-04T08:30:07.207Z,1.65
2022-09-04T08:32:58.663Z,0.85
2022-09-04T08:35:33.141Z,1.02
2022-09-04T08:38:28.782Z,2.25
2022-09-04T08:41:26.939Z,0.95
2022-09-04T08:44:44.844Z,1.00
2022-09-04T08:47:52.855Z,1.00
2022-09-04T08:50:41.802Z,2.45
2022-09-04T08:53:25.139Z,2.53
2022-09-04T08:56:06.451Z,1.40
2022-09-04T08:58:55.504Z,1.30
2022-09-04T09:01:52.135Z,1.10
2022-09-04T09:04:43.945Z,1.20
2022-09-04T09:10:12.806Z,2.22
2022-09-04T09:13:01.493Z,2.22
2022-09-04T09:15:51.824Z,1.60
2022-09-04T09:18:41.806Z,1.98
2022-09-04T09:21:10.159Z,1.95
2022-09-04T09:23:55.292Z,1.30
2022-09-04T09:26:28.322Z,1.30
2022-09-04T09:29:09.957Z,1.33
2022-09-04T09:32:09.107Z,2.05
2022-09-04T09:35:13.055Z,3.72
2022-09-04T09:38:17.324Z,2.88
2022-09-04T09:41:06.488Z,1.95
2022-09-04T09:43:46.636Z,1.20
2022-09-04T09:46:31.462Z,1.40
2022-09-04T09:49:22.735Z,2.35
2022-09-04T09:52:28.895Z,1.60
2022-09-04T09:55:07.726Z,2.45
2022-09-04T09:57:59.151Z,2.25
2022-09-04T10:00:59.821Z,2.05
2022-09-04T10:03:50.653Z,2.05
2022-09-04T10:06:54.726Z,0.77
2022-09-04T10:09:58.806Z,1.17
2022-09-04T10:12:42.844Z,1.17
2022-09-04T10:15:17.211Z,2.47
2022-09-04T10:18:05.463Z,2.30
2022-09-04T10:20:58.044Z,13.73
2022-09-04T10:23:53.995Z,1.27
2022-09-04T10:26:48.551Z,3.35
2022-09-04T10:29:33.261Z,1.73
2022-09-04T10:32:35.142Z,1.10
2022-09-04T10:35:25.284Z,1.20
2022-09-04T10:38:19.865Z,1.08
2022-09-04T10:40:58.508Z,1.17
2022-09-04T10:43:38.894Z,1.73
2022-09-04T10:46:28.353Z,1.37
2022-09-04T10:49:26.373Z,1.30
2022-09-04T10:52:17.772Z,0.95
2022-09-04T10:55:08.800Z,1.42
2022-09-04T10:57:54.195Z,0.90
2022-09-04T11:00:28.853Z,3.83
2022-09-04T11:03:28.332Z,6.10
2022-09-04T11:06:11.056Z,1.67
2022-09-04T11:08:46.403Z,1.27
2022-09-04T11:12:02.160Z,1.30
2022-09-04T11:14:52.164Z,1.10
2022-09-04T11:17:40.250Z,1.33
2022-09-04T11:20:25.429Z,1.08
2022-09-04T11:23:29.366Z,1.25
2022-09-04T11:26:26.497Z,1.23
2022-09-04T11:29:12.427Z,1.48
2022-09-04T11:32:21.280Z,1.35
2022-09-04T11:35:13.707Z,1.52
2022-09-04T11:38:18.283Z,2.13
2022-09-04T11:40:55.267Z,1.33
2022-09-04T11:43:43.612Z,1.63
2022-09-04T11:46:26.213Z,1.40
2022-09-04T11:49:16.281Z,1.30
2022-09-04T11:52:06.996Z,0.95
2022-09-04T11:54:52.170Z,1.17
2022-09-04T11:57:40.001Z,1.38
2022-09-04T12:00:11.485Z,1.42
2022-09-04T12:02:50.850Z,1.48
2022-09-04T12:05:55.134Z,1.38
2022-09-04T12:08:40.061Z,0.77
2022-09-04T12:11:32.050Z,1.42
2022-09-04T12:17:15.611Z,1.17
2022-09-04T12:20:07.850Z,0.88
2022-09-04T12:23:00.413Z,1.48
2022-09-04T12:25:46.722Z,1.15
2022-09-04T12:28:37.900Z,1.10
2022-09-04T12:31:16.738Z,1.02
2022-09-04T12:33:52.883Z,1.00
2022-09-04T12:36:38.240Z,0.88
2022-09-04T12:39:40.262Z,1.02
2022-09-04T12:42:31.069Z,1.55
2022-09-04T12:45:45.447Z,7.55
2022-09-04T12:48:29.735Z,15.20
2022-09-04T12:51:03.398Z,5.35
2022-09-04T12:53:32.684Z,14.15
2022-09-04T12:56:53.923Z,6.97
2022-09-04T12:59:35.867Z,4.82
2022-09-04T13:02:24.195Z,8.00
2022-09-04T13:05:12.530Z,5.25
2022-09-04T13:07:49.078Z,3.97
2022-09-04T13:10:33.030Z,3.38
2022-09-04T13:13:16.794Z,2.80
2022-09-04T13:16:05.931Z,3.33
2022-09-04T13:19:00.866Z,1.10
2022-09-04T13:21:43.342Z,1.50
2022-09-04T13:24:19.702Z,2.72
2022-09-04T13:27:26.471Z,1.98
2022-09-04T13:30:03.718Z,2.05
2022-09-04T13:32:38.475Z,1.42
2022-09-04T13:35:31.359Z,2.15
2022-09-04T13:38:24.512Z,1.73
2022-09-04T13:41:24.975Z,1.80
2022-09-04T13:44:24.909Z,1.90
2022-09-04T13:47:10.602Z,1.25
2022-09-04T13:49:56.572Z,2.13
2022-09-04T13:52:53.464Z,2.72
2022-09-04T13:55:24.294Z,2.35
2022-09-04T13:58:20.210Z,1.45
2022-09-04T14:00:59.355Z,1.67
2022-09-04T14:03:42.092Z,1.70
2022-09-04T14:06:30.787Z,2.08
2022-09-04T14:09:17.522Z,1.73
2022-09-04T14:11:45.446Z,2.22
2022-09-04T14:14:24.280Z,2.63
2022-09-04T14:16:54.903Z,4.50
2022-09-04T14:19:42.599Z,1.92
2022-09-04T14:22:34.104Z,3.10
2022-09-04T14:25:01.311Z,1.50
2022-09-04T14:27:48.493Z,5.18
2022-09-04T14:30:22.311Z,3.33
2022-09-04T14:33:35.494Z,3.33
2022-09-04T14:36:12.494Z,1.45
2022-09-04T14:38:56.067Z,1.58
2022-09-04T14:41:36.772Z,1.35
2022-09-04T14:44:18.269Z,2.33
2022-09-04T14:47:11.813Z,2.33
2022-09-04T14:49:47.070Z,1.60
2022-09-04T14:52:35.533Z,1.75
2022-09-04T14:55:07.028Z,1.42
2022-09-04T14:57:57.679Z,3.05
2022-09-04T15:00:24.851Z,1.48
2022-09-04T15:03:21.082Z,2.63
2022-09-04T15:05:58.554Z,1.45
2022-09-04T15:08:38.117Z,1.60
2022-09-04T15:11:30.423Z,2.03
2022-09-04T15:14:06.331Z,1.80
2022-09-04T15:16:51.138Z,2.33
2022-09-04T15:19:49.993Z,2.00
2022-09-04T15:22:45.538Z,1.60
2022-09-04T15:25:18.304Z,1.80
2022-09-04T15:27:53.342Z,1.45
2022-09-04T15:30:28.423Z,1.73
2022-09-04T15:33:06.469Z,2.30
2022-09-04T15:35:34.784Z,2.38
2022-09-04T15:38:25.446Z,1.85
2022-09-04T15:41:15.538Z,3.08
2022-09-04T15:43:46.712Z,2.33
2022-09-04T15:46:50.975Z,2.20
2022-09-04T15:49:29.617Z,2.53
2022-09-04T15:52:29.763Z,3.30
2022-09-04T15:55:02.507Z,2.45
2022-09-04T15:57:56.090Z,2.40
2022-09-04T16:00:27.243Z,2.92
2022-09-04T16:03:02.924Z,2.95
2022-09-04T16:05:41.227Z,4.47
2022-09-04T16:08:29.410Z,3.03
2022-09-04T16:11:09.439Z,2.40
2022-09-04T16:13:44.221Z,2.30
2022-09-04T16:16:23.716Z,3.28
2022-09-04T16:19:03.477Z,4.28
2022-09-04T16:22:02.770Z,2.85
2022-09-04T16:24:41.086Z,3.40
2022-09-04T16:27:13.103Z,3.65
2022-09-04T16:29:48.921Z,4.50
2022-09-04T16:32:25.734Z,3.08
2022-09-04T16:35:09.513Z,3.22
2022-09-04T16:37:56.610Z,3.95
2022-09-04T16:40:32.778Z,3.38
2022-09-04T16:43:32.091Z,3.58
2022-09-04T16:46:27.702Z,3.83
2022-09-04T16:49:07.822Z,4.10
2022-09-04T16:52:00.958Z,5.55
2022-09-04T16:54:41.364Z,3.78
2022-09-04T16:57:17.128Z,4.85
2022-09-04T16:59:50.120Z,4.65
2022-09-04T17:02:42.805Z,4.47
2022-09-04T17:08:02.807Z,4.75
2022-09-04T17:10:50.069Z,3.92
2022-09-04T17:13:19.424Z,6.82
2022-09-04T17:16:00.203Z,6.22
2022-09-04T17:18:29.014Z,5.43
2022-09-04T17:27:37.836Z,6.38
2022-09-04T17:29:16.015Z,6.63
2022-09-04T17:29:17.546Z,9.68
2022-09-04T17:31:06.364Z,4.38
2022-09-04T17:40:37.044Z,7.20
2022-09-04T17:40:57.400Z,4.95
2022-09-04T17:43:23.461Z,6.38
2022-09-04T17:46:15.840Z,5.88
2022-09-04T17:48:44.956Z,8.45
2022-09-04T17:51:21.618Z,7.03
2022-09-04T17:53:52.879Z,6.28
2022-09-04T17:56:28.395Z,6.07
2022-09-04T17:59:08.021Z,6.95
2022-09-04T18:02:01.408Z,6.28
2022-09-04T18:05:04.277Z,7.40
2022-09-04T18:08:09.212Z,6.57
2022-09-04T18:10:33.383Z,6.78
2022-09-04T18:13:36.617Z,8.65
2022-09-04T18:16:35.693Z,6.03
2022-09-04T18:19:25.952Z,7.82
2022-09-04T18:22:25.209Z,5.80
2022-09-04T18:24:51.349Z,5.53
2022-09-04T18:27:29.143Z,6.53
2022-09-04T18:33:39.888Z,6.57
2022-09-04T18:37:17.530Z,4.53
2022-09-04T18:39:09.117Z,5.95
2022-09-04T18:49:28.339Z,5.57
2022-09-04T18:50:41.261Z,5.20
2022-09-04T18:50:51.122Z,6.18
2022-09-04T18:51:19.587Z,7.15
2022-09-04T18:53:48.503Z,7.13
2022-09-04T18:56:42.150Z,7.50
2022-09-04T18:59:20.350Z,6.30
2022-09-04T19:02:01.515Z,8.57
2022-09-04T19:04:51.973Z,8.80
2022-09-04T19:07:32.478Z,6.40
2022-09-04T19:10:16.558Z,7.38
2022-09-04T19:12:55.901Z,6.05
2022-09-04T19:15:36.912Z,6.30
2022-09-04T19:18:35.836Z,6.45
2022-09-04T19:21:09.920Z,6.15
2022-09-04T19:23:50.063Z,7.05
2022-09-04T19:26:38.371Z,8.15
2022-09-04T19:29:13.834Z,6.60
2022-09-04T19:31:59.816Z,10.80
2022-09-04T19:34:50.794Z,7.43
2022-09-04T19:42:02.922Z,6.10
2022-09-04T19:46:04.236Z,6.53
2022-09-04T19:46:07.640Z,6.45
2022-09-04T19:46:29.445Z,9.23
2022-09-04T19:50:32.730Z,7.25
2022-09-04T19:53:22.615Z,6.72
2022-09-04T19:55:23.988Z,7.97
2022-09-04T19:57:53.941Z,6.63
2022-09-04T20:00:43.174Z,6.97
2022-09-04T20:03:39.201Z,6.78
2022-09-04T20:06:20.562Z,8.45
2022-09-04T20:09:20.329Z,9.13
2022-09-04T20:12:02.968Z,6.22
2022-09-04T20:14:42.558Z,6.50
2022-09-04T20:17:52.534Z,6.07
2022-09-04T20:20:27.514Z,5.70
2022-09-04T20:23:04.131Z,4.93
2022-09-04T20:25:53.798Z,5.05
2022-09-04T20:28:33.351Z,5.32
2022-09-04T20:31:45.185Z,5.43
2022-09-04T20:34:35.067Z,5.10
2022-09-04T20:37:28.812Z,5.47
2022-09-04T20:40:27.282Z,5.30
2022-09-04T20:43:03.408Z,5.00
2022-09-04T20:48:02.324Z,4.88
2022-09-04T20:52:54.743Z,5.28
2022-09-04T20:52:57.775Z,6.75
2022-09-04T20:54:59.722Z,4.07
2022-09-04T21:03:11.524Z,4.55
2022-09-04T21:03:22.136Z,5.60
2022-09-04T21:04:16.828Z,6.80
2022-09-04T21:07:22.776Z,4.85
2022-09-04T21:09:55.777Z,4.75
2022-09-04T21:12:27.270Z,7.40
2022-09-04T21:15:36.397Z,6.07
2022-09-04T21:18:08.843Z,6.15
2022-09-04T21:20:46.203Z,6.65
2022-09-04T21:24:03.113Z,5.93
2022-09-04T21:26:36.517Z,7.18
2022-09-04T21:29:36.900Z,7.57
2022-09-04T21:32:18.771Z,7.15
2022-09-04T21:35:02.891Z,9.20
2022-09-04T21:37:44.820Z,6.85
2022-09-04T21:40:51.034Z,7.70
2022-09-04T21:43:36.196Z,7.93
2022-09-04T21:46:18.117Z,6.30
2022-09-04T21:49:09.166Z,5.85
2022-09-04T21:51:44.644Z,5.25
2022-09-04T21:58:21.302Z,4.90
2022-09-04T22:02:43.810Z,6.07
2022-09-04T22:04:21.296Z,5.57
2022-09-04T22:11:12.239Z,5.07
2022-09-04T22:13:32.172Z,5.25
2022-09-04T22:13:42.101Z,5.78
2022-09-04T22:16:57.555Z,5.30
2022-09-04T22:19:42.522Z,4.93
2022-09-04T22:22:30.758Z,6.53
2022-09-04T22:25:34.692Z,6.00
2022-09-04T22:28:38.517Z,5.03
2022-09-04T22:31:24.540Z,5.90
2022-09-04T22:34:14.896Z,5.82
2022-09-04T22:37:25.801Z,6.75
2022-09-04T22:40:12.664Z,5.80
2022-09-04T22:42:56.974Z,6.97
2022-09-04T22:45:38.017Z,5.40
2022-09-04T22:48:07.340Z,5.55
2022-09-04T22:50:48.876Z,5.80
2022-09-04T22:53:48.257Z,6.03
2022-09-04T22:56:37.459Z,6.53
2022-09-04T22:59:38.676Z,6.68
2022-09-04T23:02:17.080Z,8.45
2022-09-04T23:05:17.621Z,6.85
2022-09-04T23:13:43.767Z,6.80
2022-09-04T23:14:01.801Z,6.20
2022-09-04T23:14:06.389Z,7.20
2022-09-04T23:17:22.003Z,7.57
2022-09-04T23:26:33.493Z,7.65
2022-09-04T23:26:44.650Z,5.88
2022-09-04T23:26:49.806Z,6.28
2022-09-04T23:29:40.965Z,8.27
2022-09-04T23:32:36.160Z,6.28
2022-09-04T23:35:22.772Z,6.55
2022-09-04T23:38:15.402Z,7.30
2022-09-04T23:41:12.634Z,6.68
2022-09-04T23:44:08.558Z,7.05
2022-09-04T23:47:00.780Z,6.28
2022-09-04T23:49:53.415Z,6.33
2022-09-04T23:52:46.237Z,5.85
2022-09-04T23:55:41.485Z,7.65
2022-09-04T23:58:53.348Z,9.27
